Holbrook, Pennsylvania
Current Conditions -  °F | °C
As of 5:15 PM on Thursday 27 Nov 2014 (Local Time) from KAFJ Reporting Station
Overcast Overcast  
Wind Chill: 25°   Ceiling: 1900
Heat Index: 30°   Visibility: 8mi
Dew Point: 25°   Wind: 5mph
Humidity: 80%   Direction: 270°W
Pressure: 30.17"   Gusts: NA
Location:  39.86°N, 80.31°W
Report Text: KAFJ 272215Z 27004KT 8SM SCT010 BKN019 OVC035 M01/M04 A3017 RMK AO1
Loading
Personal Weather Stations






























Interactive Weather Map New forecast layout! Learn more

10-Day Weather Forecast

Advertisements
Track Severe Weather on mobile